sensor_id;sensor_type;location;lat;lon;timestamp;pressure;altitude;pressure_sealevel;temperature;humidity
80759;BME280;70150;45.582;10.178;2023-06-14T00:00:37;99387.47;;;19.87;77.86
80759;BME280;70150;45.582;10.178;2023-06-14T00:03:06;99380.66;;;19.95;77.43
80759;BME280;70150;45.582;10.178;2023-06-14T00:05:35;99382.34;;;19.73;77.73
80759;BME280;70150;45.582;10.178;2023-06-14T00:08:06;99381.56;;;19.72;77.76
80759;BME280;70150;45.582;10.178;2023-06-14T00:10:34;99372.50;;;19.62;78.03
80759;BME280;70150;45.582;10.178;2023-06-14T00:13:01;99379.81;;;19.65;78.82
80759;BME280;70150;45.582;10.178;2023-06-14T00:15:31;99380.72;;;19.59;77.91
80759;BME280;70150;45.582;10.178;2023-06-14T00:17:57;99375.38;;;19.72;76.98
80759;BME280;70150;45.582;10.178;2023-06-14T00:20:26;99386.59;;;19.73;76.74
80759;BME280;70150;45.582;10.178;2023-06-14T00:22:53;99384.22;;;19.76;76.14
80759;BME280;70150;45.582;10.178;2023-06-14T00:25:22;99389.41;;;19.86;77.10
80759;BME280;70150;45.582;10.178;2023-06-14T00:27:50;99392.25;;;19.83;76.32
80759;BME280;70150;45.582;10.178;2023-06-14T00:30:16;99384.28;;;20.04;74.38
80759;BME280;70150;45.582;10.178;2023-06-14T00:32:41;99388.63;;;20.18;75.05
80759;BME280;70150;45.582;10.178;2023-06-14T00:35:09;99383.44;;;20.07;76.56
80759;BME280;70150;45.582;10.178;2023-06-14T00:37:35;99378.31;;;20.25;75.03
80759;BME280;70150;45.582;10.178;2023-06-14T00:40:00;99373.72;;;20.22;75.48
80759;BME280;70150;45.582;10.178;2023-06-14T00:42:27;99368.53;;;20.28;75.38
80759;BME280;70150;45.582;10.178;2023-06-14T00:44:53;99367.53;;;20.22;75.90
80759;BME280;70150;45.582;10.178;2023-06-14T00:47:19;99374.50;;;19.91;76.60
80759;BME280;70150;45.582;10.178;2023-06-14T00:49:47;99368.06;;;19.85;77.25
80759;BME280;70150;45.582;10.178;2023-06-14T00:52:15;99371.94;;;20.00;76.45
80759;BME280;70150;45.582;10.178;2023-06-14T00:54:42;99361.41;;;20.18;75.46
80759;BME280;70150;45.582;10.178;2023-06-14T00:57:08;99357.31;;;19.94;75.88
80759;BME280;70150;45.582;10.178;2023-06-14T00:59:41;99354.34;;;19.88;75.94
80759;BME280;70150;45.582;10.178;2023-06-14T01:02:08;99353.94;;;19.90;75.23
80759;BME280;70150;45.582;10.178;2023-06-14T01:04:33;99358.59;;;19.89;75.71
80759;BME280;70150;45.582;10.178;2023-06-14T01:12:13;99347.13;;;19.33;77.19
80759;BME280;70150;45.582;10.178;2023-06-14T01:14:41;99340.34;;;19.57;76.43
80759;BME280;70150;45.582;10.178;2023-06-14T01:17:10;99348.16;;;19.39;77.56
80759;BME280;70150;45.582;10.178;2023-06-14T01:19:43;99336.16;;;19.37;78.36
80759;BME280;70150;45.582;10.178;2023-06-14T01:22:10;99347.03;;;19.69;77.51
80759;BME280;70150;45.582;10.178;2023-06-14T01:24:36;99347.03;;;19.85;75.91
80759;BME280;70150;45.582;10.178;2023-06-14T01:27:02;99355.03;;;19.92;75.69
80759;BME280;70150;45.582;10.178;2023-06-14T01:29:28;99346.19;;;19.88;76.40
80759;BME280;70150;45.582;10.178;2023-06-14T01:31:59;99348.97;;;20.17;76.20
80759;BME280;70150;45.582;10.178;2023-06-14T01:34:26;99346.94;;;20.05;75.99
80759;BME280;70150;45.582;10.178;2023-06-14T01:36:54;99346.75;;;20.12;75.74
80759;BME280;70150;45.582;10.178;2023-06-14T01:39:21;99347.84;;;20.30;75.33
80759;BME280;70150;45.582;10.178;2023-06-14T01:41:49;99339.44;;;20.25;75.12
80759;BME280;70150;45.582;10.178;2023-06-14T01:44:19;99344.75;;;20.16;74.99
80759;BME280;70150;45.582;10.178;2023-06-14T01:46:45;99342.00;;;20.16;75.77
80759;BME280;70150;45.582;10.178;2023-06-14T01:49:13;99340.91;;;20.13;75.51
80759;BME280;70150;45.582;10.178;2023-06-14T01:51:41;99339.84;;;20.07;75.35
80759;BME280;70150;45.582;10.178;2023-06-14T01:54:06;99338.94;;;20.14;75.09
80759;BME280;70150;45.582;10.178;2023-06-14T01:56:34;99337.66;;;20.02;74.78
80759;BME280;70150;45.582;10.178;2023-06-14T01:59:00;99341.38;;;20.24;75.12
80759;BME280;70150;45.582;10.178;2023-06-14T02:01:25;99344.72;;;20.00;76.57
80759;BME280;70150;45.582;10.178;2023-06-14T02:03:54;99347.25;;;20.23;75.18
80759;BME280;70150;45.582;10.178;2023-06-14T02:06:19;99348.97;;;20.17;76.09
80759;BME280;70150;45.582;10.178;2023-06-14T02:08:45;99343.06;;;20.34;75.39
80759;BME280;70150;45.582;10.178;2023-06-14T02:11:10;99343.75;;;20.51;75.36
80759;BME280;70150;45.582;10.178;2023-06-14T02:13:36;99349.06;;;20.42;76.42
80759;BME280;70150;45.582;10.178;2023-06-14T02:16:02;99346.34;;;20.42;77.10
80759;BME280;70150;45.582;10.178;2023-06-14T02:18:27;99344.75;;;20.44;77.77
80759;BME280;70150;45.582;10.178;2023-06-14T02:20:53;99340.81;;;20.17;78.20
80759;BME280;70150;45.582;10.178;2023-06-14T02:23:19;99340.38;;;20.18;73.98
80759;BME280;70150;45.582;10.178;2023-06-14T02:25:47;99337.56;;;20.06;74.26
80759;BME280;70150;45.582;10.178;2023-06-14T02:28:12;99337.56;;;20.22;73.41
80759;BME280;70150;45.582;10.178;2023-06-14T02:30:38;99334.34;;;20.39;72.38
80759;BME280;70150;45.582;10.178;2023-06-14T02:33:04;99333.63;;;20.23;73.11
80759;BME280;70150;45.582;10.178;2023-06-14T02:35:30;99337.06;;;20.11;73.16
80759;BME280;70150;45.582;10.178;2023-06-14T02:37:56;99340.66;;;19.92;73.38
80759;BME280;70150;45.582;10.178;2023-06-14T02:40:22;99338.97;;;19.65;74.44
80759;BME280;70150;45.582;10.178;2023-06-14T02:42:48;99333.69;;;19.58;74.49
80759;BME280;70150;45.582;10.178;2023-06-14T02:45:13;99338.09;;;19.52;74.90
80759;BME280;70150;45.582;10.178;2023-06-14T02:47:40;99337.34;;;19.68;75.20
80759;BME280;70150;45.582;10.178;2023-06-14T02:50:06;99335.88;;;19.80;74.70
80759;BME280;70150;45.582;10.178;2023-06-14T02:52:33;99342.88;;;19.81;74.30
80759;BME280;70150;45.582;10.178;2023-06-14T02:54:59;99336.59;;;19.84;74.82
80759;BME280;70150;45.582;10.178;2023-06-14T02:57:24;99339.72;;;19.82;74.31
80759;BME280;70150;45.582;10.178;2023-06-14T02:59:50;99338.09;;;19.85;73.59
80759;BME280;70150;45.582;10.178;2023-06-14T03:02:16;99334.44;;;19.75;74.45
80759;BME280;70150;45.582;10.178;2023-06-14T03:04:41;99337.25;;;19.88;74.56
80759;BME280;70150;45.582;10.178;2023-06-14T03:07:10;99331.72;;;19.91;74.60
80759;BME280;70150;45.582;10.178;2023-06-14T03:09:36;99333.75;;;20.03;73.98
80759;BME280;70150;45.582;10.178;2023-06-14T03:12:02;99333.31;;;20.05;74.37
80759;BME280;70150;45.582;10.178;2023-06-14T03:14:28;99332.31;;;19.99;73.96
80759;BME280;70150;45.582;10.178;2023-06-14T03:16:58;99324.50;;;19.52;75.51
80759;BME280;70150;45.582;10.178;2023-06-14T03:19:24;99324.41;;;19.72;74.04
80759;BME280;70150;45.582;10.178;2023-06-14T03:21:51;99318.03;;;19.46;75.33
80759;BME280;70150;45.582;10.178;2023-06-14T03:24:16;99323.41;;;19.34;75.23
80759;BME280;70150;45.582;10.178;2023-06-14T03:26:42;99313.84;;;19.26;75.88
80759;BME280;70150;45.582;10.178;2023-06-14T03:29:08;99323.41;;;18.98;76.23
80759;BME280;70150;45.582;10.178;2023-06-14T03:31:34;99312.41;;;18.86;76.74
80759;BME280;70150;45.582;10.178;2023-06-14T03:34:01;99316.06;;;18.79;76.79
80759;BME280;70150;45.582;10.178;2023-06-14T03:36:26;99320.38;;;18.57;78.07
80759;BME280;70150;45.582;10.178;2023-06-14T03:38:53;99318.78;;;18.79;77.37
80759;BME280;70150;45.582;10.178;2023-06-14T03:41:19;99315.13;;;18.66;77.73
80759;BME280;70150;45.582;10.178;2023-06-14T03:43:47;99314.31;;;18.69;77.58
80759;BME280;70150;45.582;10.178;2023-06-14T03:46:13;99318.28;;;18.65;77.58
80759;BME280;70150;45.582;10.178;2023-06-14T03:48:38;99315.22;;;18.63;77.55
80759;BME280;70150;45.582;10.178;2023-06-14T03:51:04;99318.44;;;18.58;78.14
80759;BME280;70150;45.582;10.178;2023-06-14T03:53:30;99307.56;;;18.58;77.80
80759;BME280;70150;45.582;10.178;2023-06-14T03:55:56;99315.00;;;18.73;77.19
80759;BME280;70150;45.582;10.178;2023-06-14T03:58:22;99318.38;;;18.61;77.88
80759;BME280;70150;45.582;10.178;2023-06-14T04:00:48;99316.41;;;18.62;78.13
80759;BME280;70150;45.582;10.178;2023-06-14T04:03:14;99321.19;;;18.74;77.33
80759;BME280;70150;45.582;10.178;2023-06-14T04:05:41;99320.75;;;18.95;77.54
80759;BME280;70150;45.582;10.178;2023-06-14T04:08:08;99317.16;;;18.82;77.01
80759;BME280;70150;45.582;10.178;2023-06-14T04:10:34;99326.41;;;19.20;76.24
80759;BME280;70150;45.582;10.178;2023-06-14T04:13:00;99326.59;;;18.93;76.95
80759;BME280;70150;45.582;10.178;2023-06-14T04:15:26;99328.06;;;18.98;77.06
80759;BME280;70150;45.582;10.178;2023-06-14T04:17:53;99324.03;;;18.86;77.67
80759;BME280;70150;45.582;10.178;2023-06-14T04:20:23;99328.72;;;18.66;78.11
80759;BME280;70150;45.582;10.178;2023-06-14T04:22:50;99323.66;;;18.68;77.97
80759;BME280;70150;45.582;10.178;2023-06-14T04:25:16;99323.44;;;18.59;77.96
80759;BME280;70150;45.582;10.178;2023-06-14T04:27:42;99321.63;;;18.72;78.19
80759;BME280;70150;45.582;10.178;2023-06-14T04:30:08;99328.25;;;18.71;78.00
80759;BME280;70150;45.582;10.178;2023-06-14T04:32:33;99338.06;;;18.85;77.48
80759;BME280;70150;45.582;10.178;2023-06-14T04:35:06;99335.06;;;18.79;77.24
80759;BME280;70150;45.582;10.178;2023-06-14T04:37:32;99331.00;;;18.87;76.89
80759;BME280;70150;45.582;10.178;2023-06-14T04:39:58;99338.09;;;19.01;76.65
80759;BME280;70150;45.582;10.178;2023-06-14T04:42:28;99340.06;;;19.00;76.86
80759;BME280;70150;45.582;10.178;2023-06-14T04:44:56;99348.44;;;18.90;76.78
80759;BME280;70150;45.582;10.178;2023-06-14T04:47:22;99342.72;;;18.84;76.91
80759;BME280;70150;45.582;10.178;2023-06-14T04:49:50;99336.16;;;19.01;76.29
80759;BME280;70150;45.582;10.178;2023-06-14T04:52:17;99343.03;;;19.06;76.04
80759;BME280;70150;45.582;10.178;2023-06-14T04:54:46;99344.72;;;19.00;76.43
80759;BME280;70150;45.582;10.178;2023-06-14T04:57:12;99357.91;;;19.01;77.51
80759;BME280;70150;45.582;10.178;2023-06-14T04:59:42;99354.59;;;19.29;77.12
80759;BME280;70150;45.582;10.178;2023-06-14T05:02:10;99354.59;;;19.61;75.85
80759;BME280;70150;45.582;10.178;2023-06-14T05:04:35;99352.84;;;19.71;75.83
80759;BME280;70150;45.582;10.178;2023-06-14T05:07:07;99349.50;;;19.96;74.27
80759;BME280;70150;45.582;10.178;2023-06-14T05:09:34;99354.72;;;19.90;73.88
80759;BME280;70150;45.582;10.178;2023-06-14T05:12:00;99352.06;;;19.38;75.05
80759;BME280;70150;45.582;10.178;2023-06-14T05:14:28;99362.50;;;19.72;74.74
80759;BME280;70150;45.582;10.178;2023-06-14T05:16:56;99357.69;;;19.47;74.66
80759;BME280;70150;45.582;10.178;2023-06-14T05:19:22;99364.56;;;19.16;75.94
80759;BME280;70150;45.582;10.178;2023-06-14T05:21:48;99365.16;;;19.24;76.17
80759;BME280;70150;45.582;10.178;2023-06-14T05:24:14;99371.84;;;19.39;76.31
80759;BME280;70150;45.582;10.178;2023-06-14T05:26:40;99373.66;;;19.29;75.76
80759;BME280;70150;45.582;10.178;2023-06-14T05:29:08;99372.44;;;19.30;75.27
80759;BME280;70150;45.582;10.178;2023-06-14T05:31:34;99372.28;;;19.37;75.86
80759;BME280;70150;45.582;10.178;2023-06-14T05:34:00;99380.81;;;19.72;74.83
80759;BME280;70150;45.582;10.178;2023-06-14T05:36:25;99375.44;;;20.00;73.70
80759;BME280;70150;45.582;10.178;2023-06-14T05:38:53;99370.94;;;20.10;72.98
80759;BME280;70150;45.582;10.178;2023-06-14T05:41:21;99373.41;;;19.88;73.40
80759;BME280;70150;45.582;10.178;2023-06-14T05:43:47;99376.69;;;20.12;73.12
80759;BME280;70150;45.582;10.178;2023-06-14T05:46:13;99378.03;;;20.36;72.34
80759;BME280;70150;45.582;10.178;2023-06-14T05:48:38;99383.19;;;20.34;71.91
80759;BME280;70150;45.582;10.178;2023-06-14T05:51:04;99386.91;;;20.40;70.89
80759;BME280;70150;45.582;10.178;2023-06-14T05:53:32;99392.13;;;20.63;71.14
80759;BME280;70150;45.582;10.178;2023-06-14T05:55:57;99389.88;;;20.45;71.14
80759;BME280;70150;45.582;10.178;2023-06-14T05:58:23;99396.81;;;20.62;70.53
80759;BME280;70150;45.582;10.178;2023-06-14T06:00:48;99397.16;;;20.77;68.98
80759;BME280;70150;45.582;10.178;2023-06-14T06:03:16;99396.28;;;21.08;69.84
80759;BME280;70150;45.582;10.178;2023-06-14T06:05:42;99403.16;;;21.13;68.84
80759;BME280;70150;45.582;10.178;2023-06-14T06:08:07;99404.81;;;21.10;70.31
80759;BME280;70150;45.582;10.178;2023-06-14T06:10:33;99400.34;;;21.16;70.26
80759;BME280;70150;45.582;10.178;2023-06-14T06:12:58;99399.69;;;21.25;69.88
80759;BME280;70150;45.582;10.178;2023-06-14T06:15:24;99403.31;;;21.34;69.48
80759;BME280;70150;45.582;10.178;2023-06-14T06:17:52;99405.72;;;21.32;70.04
80759;BME280;70150;45.582;10.178;2023-06-14T06:20:18;99403.66;;;21.36;69.78
80759;BME280;70150;45.582;10.178;2023-06-14T06:22:43;99398.63;;;21.48;69.64
80759;BME280;70150;45.582;10.178;2023-06-14T06:25:09;99394.59;;;21.39;69.91
80759;BME280;70150;45.582;10.178;2023-06-14T06:27:35;99398.63;;;21.48;69.14
80759;BME280;70150;45.582;10.178;2023-06-14T06:30:03;99400.41;;;21.79;68.31
80759;BME280;70150;45.582;10.178;2023-06-14T06:32:28;99404.66;;;21.80;67.78
80759;BME280;70150;45.582;10.178;2023-06-14T06:34:54;99409.03;;;22.24;67.63
80759;BME280;70150;45.582;10.178;2023-06-14T06:37:20;99407.38;;;22.27;66.21
80759;BME280;70150;45.582;10.178;2023-06-14T06:39:45;99413.53;;;22.18;66.87
80759;BME280;70150;45.582;10.178;2023-06-14T06:42:12;99408.34;;;22.33;65.07
80759;BME280;70150;45.582;10.178;2023-06-14T06:44:37;99408.41;;;22.54;66.48
80759;BME280;70150;45.582;10.178;2023-06-14T06:47:03;99418.44;;;22.70;66.53
80759;BME280;70150;45.582;10.178;2023-06-14T06:49:29;99425.69;;;22.85;65.25
80759;BME280;70150;45.582;10.178;2023-06-14T06:51:59;99421.34;;;22.97;66.11
80759;BME280;70150;45.582;10.178;2023-06-14T06:54:24;99431.00;;;22.67;66.46
80759;BME280;70150;45.582;10.178;2023-06-14T06:56:50;99426.22;;;22.59;65.15
80759;BME280;70150;45.582;10.178;2023-06-14T06:59:16;99428.09;;;22.49;65.70
80759;BME280;70150;45.582;10.178;2023-06-14T07:01:42;99424.91;;;22.85;65.67
80759;BME280;70150;45.582;10.178;2023-06-14T07:04:10;99431.16;;;22.85;65.39
80759;BME280;70150;45.582;10.178;2023-06-14T07:06:35;99432.84;;;23.13;65.42
80759;BME280;70150;45.582;10.178;2023-06-14T07:09:01;99434.88;;;23.22;65.38
80759;BME280;70150;45.582;10.178;2023-06-14T07:11:30;99435.44;;;23.39;65.90
80759;BME280;70150;45.582;10.178;2023-06-14T07:16:21;99444.06;;;23.59;64.07
80759;BME280;70150;45.582;10.178;2023-06-14T07:18:47;99440.00;;;23.72;64.40
80759;BME280;70150;45.582;10.178;2023-06-14T07:21:13;99445.69;;;23.78;64.31
80759;BME280;70150;45.582;10.178;2023-06-14T07:23:39;99448.03;;;23.58;62.81
80759;BME280;70150;45.582;10.178;2023-06-14T07:26:04;99446.50;;;23.57;62.59
80759;BME280;70150;45.582;10.178;2023-06-14T07:28:30;99453.22;;;23.65;62.84
80759;BME280;70150;45.582;10.178;2023-06-14T07:30:56;99459.06;;;23.76;64.46
80759;BME280;70150;45.582;10.178;2023-06-14T07:33:21;99455.69;;;23.72;64.68
80759;BME280;70150;45.582;10.178;2023-06-14T07:35:47;99452.16;;;23.32;62.49
80759;BME280;70150;45.582;10.178;2023-06-14T07:38:13;99443.97;;;23.19;62.83
80759;BME280;70150;45.582;10.178;2023-06-14T07:40:39;99451.81;;;23.30;63.16
80759;BME280;70150;45.582;10.178;2023-06-14T07:43:04;99452.97;;;23.41;62.75
80759;BME280;70150;45.582;10.178;2023-06-14T07:45:30;99454.94;;;23.41;62.00
80759;BME280;70150;45.582;10.178;2023-06-14T07:47:56;99448.47;;;23.56;61.80
80759;BME280;70150;45.582;10.178;2023-06-14T07:50:21;99450.44;;;23.56;63.12
80759;BME280;70150;45.582;10.178;2023-06-14T07:52:47;99445.84;;;23.53;61.60
80759;BME280;70150;45.582;10.178;2023-06-14T07:55:14;99460.47;;;23.50;62.83
80759;BME280;70150;45.582;10.178;2023-06-14T07:57:40;99456.31;;;23.45;62.53
80759;BME280;70150;45.582;10.178;2023-06-14T08:00:06;99454.59;;;23.69;62.40
80759;BME280;70150;45.582;10.178;2023-06-14T08:02:32;99451.56;;;23.67;61.01
80759;BME280;70150;45.582;10.178;2023-06-14T08:04:58;99454.91;;;24.02;60.01
80759;BME280;70150;45.582;10.178;2023-06-14T08:07:23;99449.81;;;23.82;59.72
80759;BME280;70150;45.582;10.178;2023-06-14T08:09:49;99452.94;;;24.11;59.82
80759;BME280;70150;45.582;10.178;2023-06-14T08:12:15;99453.13;;;24.17;59.27
80759;BME280;70150;45.582;10.178;2023-06-14T08:14:42;99459.22;;;24.30;58.52
80759;BME280;70150;45.582;10.178;2023-06-14T08:17:08;99460.59;;;24.34;57.77
80759;BME280;70150;45.582;10.178;2023-06-14T08:19:33;99455.44;;;24.45;58.89
80759;BME280;70150;45.582;10.178;2023-06-14T08:21:59;99459.50;;;24.14;55.37
80759;BME280;70150;45.582;10.178;2023-06-14T08:24:25;99467.94;;;24.46;54.76
80759;BME280;70150;45.582;10.178;2023-06-14T08:26:53;99461.19;;;24.20;56.30
80759;BME280;70150;45.582;10.178;2023-06-14T08:29:19;99466.56;;;24.42;56.29
80759;BME280;70150;45.582;10.178;2023-06-14T08:31:45;99458.53;;;24.65;57.92
80759;BME280;70150;45.582;10.178;2023-06-14T08:34:10;99465.09;;;24.86;57.16
80759;BME280;70150;45.582;10.178;2023-06-14T08:36:39;99469.97;;;24.91;56.37
80759;BME280;70150;45.582;10.178;2023-06-14T08:39:05;99473.16;;;24.99;56.66
80759;BME280;70150;45.582;10.178;2023-06-14T08:41:30;99469.34;;;25.05;56.34
80759;BME280;70150;45.582;10.178;2023-06-14T08:43:56;99468.44;;;24.81;55.09
80759;BME280;70150;45.582;10.178;2023-06-14T08:46:25;99475.47;;;24.73;55.11
80759;BME280;70150;45.582;10.178;2023-06-14T08:48:53;99463.25;;;24.65;55.11
80759;BME280;70150;45.582;10.178;2023-06-14T08:51:22;99471.34;;;24.77;55.91
80759;BME280;70150;45.582;10.178;2023-06-14T08:53:53;99474.69;;;25.00;56.35
80759;BME280;70150;45.582;10.178;2023-06-14T08:56:25;99478.47;;;24.93;55.64
80759;BME280;70150;45.582;10.178;2023-06-14T08:58:51;99482.75;;;25.03;56.20
80759;BME280;70150;45.582;10.178;2023-06-14T09:01:17;99479.09;;;25.15;55.73
80759;BME280;70150;45.582;10.178;2023-06-14T09:03:44;99482.78;;;24.94;55.71
80759;BME280;70150;45.582;10.178;2023-06-14T09:06:11;99488.56;;;25.05;55.88
80759;BME280;70150;45.582;10.178;2023-06-14T09:08:43;99489.16;;;25.09;55.97
80759;BME280;70150;45.582;10.178;2023-06-14T09:11:11;99488.56;;;24.96;55.60
80759;BME280;70150;45.582;10.178;2023-06-14T09:13:38;99486.25;;;25.22;56.28
80759;BME280;70150;45.582;10.178;2023-06-14T09:16:04;99491.59;;;25.16;55.94
80759;BME280;70150;45.582;10.178;2023-06-14T09:18:34;99493.88;;;25.18;56.09
80759;BME280;70150;45.582;10.178;2023-06-14T09:21:00;99487.94;;;24.92;55.67
80759;BME280;70150;45.582;10.178;2023-06-14T09:23:26;99488.72;;;24.84;55.01
80759;BME280;70150;45.582;10.178;2023-06-14T09:25:51;99490.56;;;24.96;56.20
80759;BME280;70150;45.582;10.178;2023-06-14T09:28:17;99489.78;;;24.95;55.51
80759;BME280;70150;45.582;10.178;2023-06-14T09:30:42;99482.16;;;24.99;55.23
80759;BME280;70150;45.582;10.178;2023-06-14T09:33:08;99494.66;;;24.91;55.91
80759;BME280;70150;45.582;10.178;2023-06-14T09:35:34;99489.31;;;25.15;55.28
80759;BME280;70150;45.582;10.178;2023-06-14T09:37:59;99498.47;;;25.12;55.44
80759;BME280;70150;45.582;10.178;2023-06-14T09:40:26;99491.00;;;24.94;54.88
80759;BME280;70150;45.582;10.178;2023-06-14T09:42:52;99497.84;;;25.17;55.45
80759;BME280;70150;45.582;10.178;2023-06-14T09:45:17;99492.81;;;25.24;55.42
80759;BME280;70150;45.582;10.178;2023-06-14T09:47:49;99498.16;;;25.37;54.87
80759;BME280;70150;45.582;10.178;2023-06-14T09:50:14;99499.97;;;25.40;55.45
80759;BME280;70150;45.582;10.178;2023-06-14T09:52:43;99498.63;;;25.35;55.49
80759;BME280;70150;45.582;10.178;2023-06-14T09:55:12;99498.59;;;25.26;54.41
80759;BME280;70150;45.582;10.178;2023-06-14T09:57:41;99493.13;;;24.81;54.86
80759;BME280;70150;45.582;10.178;2023-06-14T10:00:09;99488.56;;;24.78;55.50
80759;BME280;70150;45.582;10.178;2023-06-14T10:02:37;99495.25;;;25.04;56.05
80759;BME280;70150;45.582;10.178;2023-06-14T10:05:09;99497.41;;;25.09;56.15
80759;BME280;70150;45.582;10.178;2023-06-14T10:07:40;99497.72;;;25.11;55.83
80759;BME280;70150;45.582;10.178;2023-06-14T10:10:08;99496.50;;;25.03;56.17
80759;BME280;70150;45.582;10.178;2023-06-14T10:12:34;99492.50;;;25.22;54.61
80759;BME280;70150;45.582;10.178;2023-06-14T10:15:00;99489.44;;;25.47;55.60
80759;BME280;70150;45.582;10.178;2023-06-14T10:22:37;99485.16;;;25.19;56.27
80759;BME280;70150;45.582;10.178;2023-06-14T10:25:07;99483.22;;;25.11;55.25
80759;BME280;70150;45.582;10.178;2023-06-14T10:27:37;99477.56;;;25.14;55.89
80759;BME280;70150;45.582;10.178;2023-06-14T10:30:05;99483.22;;;24.93;56.52
80759;BME280;70150;45.582;10.178;2023-06-14T10:32:31;99478.16;;;25.18;56.36
80759;BME280;70150;45.582;10.178;2023-06-14T10:35:01;99474.19;;;25.19;55.56
80759;BME280;70150;45.582;10.178;2023-06-14T10:37:29;99479.00;;;25.60;56.27
80759;BME280;70150;45.582;10.178;2023-06-14T10:39:55;99475.28;;;25.22;55.01
80759;BME280;70150;45.582;10.178;2023-06-14T10:42:21;99478.03;;;24.86;54.59
80759;BME280;70150;45.582;10.178;2023-06-14T10:44:53;99479.22;;;25.39;55.84
80759;BME280;70150;45.582;10.178;2023-06-14T10:47:24;99468.06;;;25.42;52.84
80759;BME280;70150;45.582;10.178;2023-06-14T10:52:22;99461.06;;;26.15;52.24
80759;BME280;70150;45.582;10.178;2023-06-14T10:57:20;99465.03;;;26.14;52.61
80759;BME280;70150;45.582;10.178;2023-06-14T10:59:46;99459.97;;;26.60;52.67
80759;BME280;70150;45.582;10.178;2023-06-14T11:02:20;99448.75;;;26.73;52.86
80759;BME280;70150;45.582;10.178;2023-06-14T11:04:52;99445.34;;;26.54;50.70
80759;BME280;70150;45.582;10.178;2023-06-14T11:12:17;99435.75;;;26.49;46.97
80759;BME280;70150;45.582;10.178;2023-06-14T11:14:46;99442.50;;;26.48;45.61
80759;BME280;70150;45.582;10.178;2023-06-14T11:17:13;99431.38;;;26.19;46.17
80759;BME280;70150;45.582;10.178;2023-06-14T11:19:38;99427.00;;;26.36;48.56
80759;BME280;70150;45.582;10.178;2023-06-14T11:22:04;99419.03;;;26.38;47.21
80759;BME280;70150;45.582;10.178;2023-06-14T11:24:32;99427.22;;;26.48;45.79
80759;BME280;70150;45.582;10.178;2023-06-14T11:26:58;99416.19;;;26.09;45.88
80759;BME280;70150;45.582;10.178;2023-06-14T11:29:23;99422.69;;;26.59;45.10
80759;BME280;70150;45.582;10.178;2023-06-14T11:31:50;99420.25;;;26.61;44.86
80759;BME280;70150;45.582;10.178;2023-06-14T11:34:16;99410.44;;;26.98;45.07
80759;BME280;70150;45.582;10.178;2023-06-14T11:36:42;99417.84;;;27.21;46.08
80759;BME280;70150;45.582;10.178;2023-06-14T11:39:08;99413.41;;;26.57;44.00
80759;BME280;70150;45.582;10.178;2023-06-14T11:41:38;99408.41;;;26.84;45.97
80759;BME280;70150;45.582;10.178;2023-06-14T11:44:07;99407.41;;;26.20;44.18
80759;BME280;70150;45.582;10.178;2023-06-14T11:46:33;99406.50;;;26.37;47.07
80759;BME280;70150;45.582;10.178;2023-06-14T11:48:59;99397.03;;;26.77;45.57
80759;BME280;70150;45.582;10.178;2023-06-14T11:51:29;99399.78;;;27.06;45.01
80759;BME280;70150;45.582;10.178;2023-06-14T11:53:55;99393.84;;;26.55;43.09
80759;BME280;70150;45.582;10.178;2023-06-14T11:56:21;99390.44;;;26.60;43.50
80759;BME280;70150;45.582;10.178;2023-06-14T11:58:46;99399.31;;;26.16;43.22
80759;BME280;70150;45.582;10.178;2023-06-14T12:01:17;99396.09;;;26.41;43.55
80759;BME280;70150;45.582;10.178;2023-06-14T12:03:47;99391.63;;;26.44;43.68
80759;BME280;70150;45.582;10.178;2023-06-14T12:06:13;99388.81;;;26.53;42.75
80759;BME280;70150;45.582;10.178;2023-06-14T12:08:43;99380.16;;;26.60;41.69
80759;BME280;70150;45.582;10.178;2023-06-14T12:11:12;99383.47;;;26.49;43.79
80759;BME280;70150;45.582;10.178;2023-06-14T12:13:39;99386.00;;;26.38;42.66
80759;BME280;70150;45.582;10.178;2023-06-14T12:16:09;99381.75;;;25.90;43.29
80759;BME280;70150;45.582;10.178;2023-06-14T12:18:36;99374.59;;;26.31;41.49
80759;BME280;70150;45.582;10.178;2023-06-14T12:21:04;99374.63;;;26.84;42.90
80759;BME280;70150;45.582;10.178;2023-06-14T12:26:04;99366.66;;;26.33;39.51
80759;BME280;70150;45.582;10.178;2023-06-14T12:28:31;99360.78;;;26.40;40.50
80759;BME280;70150;45.582;10.178;2023-06-14T12:30:57;99361.06;;;26.27;40.32
80759;BME280;70150;45.582;10.178;2023-06-14T12:33:24;99364.38;;;26.31;41.44
80759;BME280;70150;45.582;10.178;2023-06-14T12:35:50;99362.88;;;26.45;39.42
80759;BME280;70150;45.582;10.178;2023-06-14T12:38:18;99355.47;;;26.36;39.21
80759;BME280;70150;45.582;10.178;2023-06-14T12:40:43;99363.53;;;26.40;39.54
80759;BME280;70150;45.582;10.178;2023-06-14T12:43:09;99364.81;;;26.54;38.79
80759;BME280;70150;45.582;10.178;2023-06-14T12:45:35;99363.25;;;26.91;38.96
80759;BME280;70150;45.582;10.178;2023-06-14T12:48:00;99359.53;;;26.79;38.47
80759;BME280;70150;45.582;10.178;2023-06-14T12:50:26;99363.72;;;26.75;37.93
80759;BME280;70150;45.582;10.178;2023-06-14T12:52:51;99356.88;;;26.85;37.25
80759;BME280;70150;45.582;10.178;2023-06-14T12:55:17;99363.72;;;26.89;42.14
80759;BME280;70150;45.582;10.178;2023-06-14T12:57:43;99354.59;;;26.83;41.05
80759;BME280;70150;45.582;10.178;2023-06-14T13:00:09;99353.84;;;26.97;41.20
80759;BME280;70150;45.582;10.178;2023-06-14T13:02:35;99358.00;;;26.64;40.55
80759;BME280;70150;45.582;10.178;2023-06-14T13:05:01;99351.81;;;26.98;41.03
80759;BME280;70150;45.582;10.178;2023-06-14T13:07:29;99361.53;;;27.08;39.96
80759;BME280;70150;45.582;10.178;2023-06-14T13:09:54;99359.13;;;27.01;41.20
80759;BME280;70150;45.582;10.178;2023-06-14T13:12:20;99358.69;;;26.73;42.27